LEWISTON (LEW)

Elevation: 1870' · TRINITY R basin · Operator: US Bureau of Reclamation

Provisional data, subject to change.
Query executed Wednesday at 4:56:55   clock

Select a sensor type for a plot of data.
Note: Reservoir Flows are daily averages.

Earlier

Date RES ELE    STORAGE    RES CHG    OUTFLOW    INFLOW    EVAP    RIV REL    SPILL    DIS PWR   
 FEET   AF   AF   CFS   CFS   CFS   CFS   CFS   CFS  
08/29/2016 1901.26 14105 216 1768 1882 5 1245 1095 110
08/30/2016 1901.14 14016 -89 1707 1667 5 1241 1091 110
08/31/2016 1900.95 13874 -142 1835 1769 6 1239 1089 108
09/01/2016 1900.75 13727 -147 1861 1793 6 1245 1087 110
09/02/2016 1900.84 13793 66 1703 1741 5 1198 1033 110
09/03/2016 1901.00 13911 118 1689 1753 5 1192 1027 110
09/04/2016 1901.06 13956 45 1720 1748 5 1202 1037 110
09/05/2016 1900.65 13653 -303 1839 1690 4 1199 1034 110
09/06/2016 1900.76 13734 81 1735 1779 3 1197 1032 110
09/07/2016 1900.92 13852 118 1744 1808 5 1093 928 110
09/08/2016 1901.04 13941 89 1641 1691 5 1021 856 110
09/09/2016 1901.16 14031 90 1652 1703 6 1022 857 110
09/10/2016 1900.96 13882 -149 1621 1551 5 1022 857 110
09/11/2016 1901.35 14173 291 1529 1682 6 1023 858 110
09/12/2016 1900.56 13587 -586 1874 1585 6 1021 856 110
09/13/2016 1900.86 13808 221 1599 1714 4 1014 849 110
09/14/2016 1901.06 13956 148 1483 1562 4 1018 853 110
09/15/2016 1901.40 14210 254 1461 1594 5 1023 858 110
09/16/2016 1901.11 13993 -217 1532 1427 4 1027 862 110
09/17/2016 1901.24 14091 98 1488 1542 5 1028 863 110
09/18/2016 1901.48 14270 179 1500 1596 6 1031 866 110
09/19/2016 1901.34 14165 -- 1499 1451 5 1032 867 110
09/20/2016 1900.72 13705 -460 1677 1449 4 1026 861 110
09/21/2016 1900.78 13749 44 1563 1590 5 1027 862 110
09/22/2016 1900.60 13617 -132 1732 1670 5 1034 869 110
09/23/2016 1900.65 13653 36 1535 1557 4 945 780 110
09/24/2016 1900.84 13793 140 1440 1513 2 827 662 110
09/25/2016 1900.64 13646 -147 1406 1336 4 727 562 110
09/26/2016 1900.59 13609 -37 1413 1399 5 640 475 110
09/27/2016 1900.18 13307 -302 1646 1498 4 514 349 110
09/28/2016 -- -- -- -- -- -- -- -- --

Later | Latest

Warning! This data is preliminary and subject to revision.

Show LEW Map | Plot LEW Data | 1 Month LEW Data | Real-Time LEW Data | LEW Info